KHYA

Barnstable Municipal-Boardman / Polando Field Airport

Hyannis, Massachusetts, USA
KHYA 212335Z 2200/2224 29014G26KT P6SM VCSH OVC035 TEMPO 2200/2203 3SM -SHSN BKN025 FM220600 31017G27KT P6SM SCT090 FM221700 32015G24KT P6SM SKC FM222200 30007KT P6SM SKC
Issued Valid From Valid To
Jan-21 @ 23:35 UTC
(37 minutes ago)
Jan-22 @ 00:00 UTC
(12 minutes ago)
Jan-23 @ 00:00 UTC
(in 24 hours)
Jan-22 @ 00:00 to Jan-22 @ 06:00
KHYA 212335Z 2200/2224 29014G26KT P6SM VCSH OVC035
Wind Visibility Clouds
290° at 14 knots
 Gusting to 26 knots
Greater than 6 miles
  • Overcast at 3,500' AGL
Temporary Jan-22 @ 00:00 to Jan-22 @ 03:00
TEMPO 2200/2203 3SM -SHSN BKN025
Visibility Clouds Conditions
3 miles
  • Broken at 2,500' AGL
  • Light Snow
From Jan-22 @ 06:00 to Jan-22 @ 17:00
FM220600 31017G27KT P6SM SCT090
Wind Visibility Clouds
310° at 17 knots
 Gusting to 27 knots
Greater than 6 miles
  • Scattered at 9,000' AGL
From Jan-22 @ 17:00 to Jan-22 @ 22:00
FM221700 32015G24KT P6SM SKC
Wind Visibility Clouds
320° at 15 knots
 Gusting to 24 knots
Greater than 6 miles
  • Clear skies
From Jan-22 @ 22:00 to Jan-23 @ 00:00
FM222200 30007KT P6SM SKC
Wind Visibility Clouds
300° at 7 knots Greater than 6 miles
  • Clear skies
KHYA 212335Z 2200/2224 29014G26KT P6SM VCSH OVC035 TEMPO 2200/2203 3SM -SHSN BKN025 FM220600 31017G27KT P6SM SCT090 FM221700 32015G24KT P6SM SKC FM222200 30007KT P6SM SKC
Issued Jan-21 @ 23:35 UTC
(37 minutes ago)
Valid From Jan-22 @ 00:00 UTC
(12 minutes ago)
Valid To Jan-23 @ 00:00 UTC
(in 24 hours)
Jan-22 @ 00:00 - Jan-22 @ 06:00
Wind Visibility
290° at 14 knots
 Gusting to 26 knots
Greater than 6 miles
Clouds
  • Overcast at 3,500' AGL
Temporary Jan-22 @ 00:00 - Jan-22 @ 03:00
Clouds
  • Broken at 2,500' AGL
Conditions
  • Light Snow
From Jan-22 @ 06:00 - Jan-22 @ 17:00
Wind Visibility
310° at 17 knots
 Gusting to 27 knots
Greater than 6 miles
Clouds
  • Scattered at 9,000' AGL
From Jan-22 @ 17:00 - Jan-22 @ 22:00
Wind Visibility
320° at 15 knots
 Gusting to 24 knots
Greater than 6 miles
Clouds
  • Clear skies
From Jan-22 @ 22:00 - Jan-23 @ 00:00
Wind Visibility
300° at 7 knots Greater than 6 miles
Clouds
  • Clear skies